sensor_id;sensor_type;location;lat;lon;timestamp;temperature;humidity
58517;DHT22;44308;50.810;0.284;2023-03-23T00:00:21;11.70;99.90
58517;DHT22;44308;50.810;0.284;2023-03-23T00:02:47;11.70;99.90
58517;DHT22;44308;50.810;0.284;2023-03-23T00:05:12;11.70;99.90
58517;DHT22;44308;50.810;0.284;2023-03-23T00:07:59;11.70;99.90
58517;DHT22;44308;50.810;0.284;2023-03-23T00:10:27;11.70;99.90
58517;DHT22;44308;50.810;0.284;2023-03-23T00:12:58;11.60;99.90
58517;DHT22;44308;50.810;0.284;2023-03-23T00:15:28;11.70;99.90
58517;DHT22;44308;50.810;0.284;2023-03-23T00:18:02;11.60;99.90
58517;DHT22;44308;50.810;0.284;2023-03-23T00:20:30;11.70;99.90
58517;DHT22;44308;50.810;0.284;2023-03-23T00:23:02;11.70;99.90
58517;DHT22;44308;50.810;0.284;2023-03-23T00:25:29;11.60;99.90
58517;DHT22;44308;50.810;0.284;2023-03-23T00:27:56;11.70;99.90
58517;DHT22;44308;50.810;0.284;2023-03-23T00:30:22;11.60;99.90
58517;DHT22;44308;50.810;0.284;2023-03-23T00:32:48;11.70;99.90
58517;DHT22;44308;50.810;0.284;2023-03-23T00:35:14;11.60;99.90
58517;DHT22;44308;50.810;0.284;2023-03-23T00:37:42;11.60;99.90
58517;DHT22;44308;50.810;0.284;2023-03-23T00:40:09;11.60;99.90
58517;DHT22;44308;50.810;0.284;2023-03-23T00:42:36;11.60;99.90
58517;DHT22;44308;50.810;0.284;2023-03-23T00:45:04;11.60;99.90
58517;DHT22;44308;50.810;0.284;2023-03-23T00:47:37;11.50;99.90
58517;DHT22;44308;50.810;0.284;2023-03-23T00:50:04;11.50;99.90
58517;DHT22;44308;50.810;0.284;2023-03-23T00:52:30;11.50;99.90
58517;DHT22;44308;50.810;0.284;2023-03-23T00:54:56;11.40;99.90
58517;DHT22;44308;50.810;0.284;2023-03-23T00:57:22;11.50;99.90
58517;DHT22;44308;50.810;0.284;2023-03-23T00:59:50;11.40;99.90
58517;DHT22;44308;50.810;0.284;2023-03-23T01:02:16;11.50;99.90
58517;DHT22;44308;50.810;0.284;2023-03-23T01:04:43;11.50;99.90
58517;DHT22;44308;50.810;0.284;2023-03-23T01:07:11;11.40;99.90
58517;DHT22;44308;50.810;0.284;2023-03-23T01:09:39;11.40;99.90
58517;DHT22;44308;50.810;0.284;2023-03-23T01:12:05;11.40;99.90
58517;DHT22;44308;50.810;0.284;2023-03-23T01:14:31;11.40;99.90
58517;DHT22;44308;50.810;0.284;2023-03-23T01:16:57;11.50;99.90
58517;DHT22;44308;50.810;0.284;2023-03-23T01:19:23;11.50;99.90
58517;DHT22;44308;50.810;0.284;2023-03-23T01:21:48;11.50;99.90
58517;DHT22;44308;50.810;0.284;2023-03-23T01:24:14;11.50;99.90
58517;DHT22;44308;50.810;0.284;2023-03-23T01:26:41;11.50;99.90
58517;DHT22;44308;50.810;0.284;2023-03-23T01:29:07;11.50;99.90
58517;DHT22;44308;50.810;0.284;2023-03-23T01:31:33;11.50;99.90
58517;DHT22;44308;50.810;0.284;2023-03-23T01:33:59;11.60;99.90
58517;DHT22;44308;50.810;0.284;2023-03-23T01:36:28;11.60;99.90
58517;DHT22;44308;50.810;0.284;2023-03-23T01:38:59;11.50;99.90
58517;DHT22;44308;50.810;0.284;2023-03-23T01:41:26;11.50;99.90
58517;DHT22;44308;50.810;0.284;2023-03-23T01:46:21;11.60;99.90
58517;DHT22;44308;50.810;0.284;2023-03-23T01:48:50;11.50;99.90
58517;DHT22;44308;50.810;0.284;2023-03-23T01:51:17;11.60;99.90
58517;DHT22;44308;50.810;0.284;2023-03-23T01:53:48;11.50;99.90
58517;DHT22;44308;50.810;0.284;2023-03-23T01:56:20;11.60;99.90
58517;DHT22;44308;50.810;0.284;2023-03-23T01:58:52;11.60;99.90
58517;DHT22;44308;50.810;0.284;2023-03-23T02:01:19;11.50;99.90
58517;DHT22;44308;50.810;0.284;2023-03-23T02:03:47;11.50;99.90
58517;DHT22;44308;50.810;0.284;2023-03-23T02:06:14;11.50;99.90
58517;DHT22;44308;50.810;0.284;2023-03-23T02:08:41;11.50;99.90
58517;DHT22;44308;50.810;0.284;2023-03-23T02:11:17;11.50;99.90
58517;DHT22;44308;50.810;0.284;2023-03-23T02:13:44;11.60;99.90
58517;DHT22;44308;50.810;0.284;2023-03-23T02:18:59;11.50;99.90
58517;DHT22;44308;50.810;0.284;2023-03-23T02:27:24;11.50;99.90
58517;DHT22;44308;50.810;0.284;2023-03-23T02:35:10;11.40;99.90
58517;DHT22;44308;50.810;0.284;2023-03-23T02:40:18;11.40;99.90
58517;DHT22;44308;50.810;0.284;2023-03-23T02:42:48;11.30;99.90
58517;DHT22;44308;50.810;0.284;2023-03-23T02:45:16;11.30;99.90
58517;DHT22;44308;50.810;0.284;2023-03-23T02:47:47;11.30;99.90
58517;DHT22;44308;50.810;0.284;2023-03-23T02:50:15;11.30;99.90
58517;DHT22;44308;50.810;0.284;2023-03-23T02:52:43;11.30;99.90
58517;DHT22;44308;50.810;0.284;2023-03-23T02:55:11;11.20;99.90
58517;DHT22;44308;50.810;0.284;2023-03-23T02:57:38;11.20;99.90
58517;DHT22;44308;50.810;0.284;2023-03-23T03:00:05;11.20;99.90
58517;DHT22;44308;50.810;0.284;2023-03-23T03:02:41;11.10;99.90
58517;DHT22;44308;50.810;0.284;2023-03-23T03:11:09;10.90;99.90
58517;DHT22;44308;50.810;0.284;2023-03-23T03:13:53;10.90;99.90
58517;DHT22;44308;50.810;0.284;2023-03-23T03:16:26;10.80;99.90
58517;DHT22;44308;50.810;0.284;2023-03-23T03:21:38;11.00;99.90
58517;DHT22;44308;50.810;0.284;2023-03-23T03:24:05;10.90;99.90
58517;DHT22;44308;50.810;0.284;2023-03-23T03:26:39;10.90;99.90
58517;DHT22;44308;50.810;0.284;2023-03-23T03:29:07;10.90;99.90
58517;DHT22;44308;50.810;0.284;2023-03-23T03:31:38;10.80;99.90
58517;DHT22;44308;50.810;0.284;2023-03-23T03:34:05;10.70;99.90
58517;DHT22;44308;50.810;0.284;2023-03-23T03:36:34;10.60;99.90
58517;DHT22;44308;50.810;0.284;2023-03-23T03:39:08;10.60;99.90
58517;DHT22;44308;50.810;0.284;2023-03-23T03:41:36;10.50;99.90
58517;DHT22;44308;50.810;0.284;2023-03-23T03:44:03;10.60;99.90
58517;DHT22;44308;50.810;0.284;2023-03-23T03:46:32;10.50;99.90
58517;DHT22;44308;50.810;0.284;2023-03-23T03:48:59;10.60;99.90
58517;DHT22;44308;50.810;0.284;2023-03-23T03:51:26;10.60;99.90
58517;DHT22;44308;50.810;0.284;2023-03-23T03:53:52;10.70;99.90
58517;DHT22;44308;50.810;0.284;2023-03-23T03:56:20;10.70;99.90
58517;DHT22;44308;50.810;0.284;2023-03-23T03:58:47;10.70;99.90
58517;DHT22;44308;50.810;0.284;2023-03-23T04:01:14;10.70;99.90
58517;DHT22;44308;50.810;0.284;2023-03-23T04:03:41;10.70;99.90
58517;DHT22;44308;50.810;0.284;2023-03-23T04:06:08;10.80;99.90
58517;DHT22;44308;50.810;0.284;2023-03-23T04:08:34;10.80;99.90
58517;DHT22;44308;50.810;0.284;2023-03-23T04:11:01;10.80;99.90
58517;DHT22;44308;50.810;0.284;2023-03-23T04:13:27;10.70;99.90
58517;DHT22;44308;50.810;0.284;2023-03-23T04:15:52;10.70;99.90
58517;DHT22;44308;50.810;0.284;2023-03-23T04:18:19;10.70;99.90
58517;DHT22;44308;50.810;0.284;2023-03-23T04:20:46;10.70;99.90
58517;DHT22;44308;50.810;0.284;2023-03-23T04:23:15;10.80;99.90
58517;DHT22;44308;50.810;0.284;2023-03-23T04:25:50;10.70;99.90
58517;DHT22;44308;50.810;0.284;2023-03-23T04:28:17;10.60;99.90
58517;DHT22;44308;50.810;0.284;2023-03-23T04:30:44;10.50;99.90
58517;DHT22;44308;50.810;0.284;2023-03-23T04:33:11;10.50;99.90
58517;DHT22;44308;50.810;0.284;2023-03-23T04:35:43;10.50;99.90
58517;DHT22;44308;50.810;0.284;2023-03-23T04:38:12;10.50;99.90
58517;DHT22;44308;50.810;0.284;2023-03-23T04:40:40;10.50;99.90
58517;DHT22;44308;50.810;0.284;2023-03-23T04:43:06;10.50;99.90
58517;DHT22;44308;50.810;0.284;2023-03-23T04:45:34;10.50;99.90
58517;DHT22;44308;50.810;0.284;2023-03-23T04:48:02;10.60;99.90
58517;DHT22;44308;50.810;0.284;2023-03-23T04:50:32;10.60;99.90
58517;DHT22;44308;50.810;0.284;2023-03-23T04:53:02;10.60;99.90
58517;DHT22;44308;50.810;0.284;2023-03-23T04:55:34;10.60;99.90
58517;DHT22;44308;50.810;0.284;2023-03-23T04:58:04;10.70;99.90
58517;DHT22;44308;50.810;0.284;2023-03-23T05:00:31;10.60;99.90
58517;DHT22;44308;50.810;0.284;2023-03-23T05:02:57;10.70;99.90
58517;DHT22;44308;50.810;0.284;2023-03-23T05:05:24;10.70;99.90
58517;DHT22;44308;50.810;0.284;2023-03-23T05:07:51;10.70;99.90
58517;DHT22;44308;50.810;0.284;2023-03-23T05:10:17;10.70;99.90
58517;DHT22;44308;50.810;0.284;2023-03-23T05:12:43;10.60;99.90
58517;DHT22;44308;50.810;0.284;2023-03-23T05:15:11;10.60;99.90
58517;DHT22;44308;50.810;0.284;2023-03-23T05:17:37;10.60;99.90
58517;DHT22;44308;50.810;0.284;2023-03-23T05:20:04;10.60;99.90
58517;DHT22;44308;50.810;0.284;2023-03-23T05:22:33;10.60;99.90
58517;DHT22;44308;50.810;0.284;2023-03-23T05:24:59;10.50;99.90
58517;DHT22;44308;50.810;0.284;2023-03-23T05:27:28;10.60;99.90
58517;DHT22;44308;50.810;0.284;2023-03-23T05:29:56;10.50;99.90
58517;DHT22;44308;50.810;0.284;2023-03-23T05:32:24;10.50;99.90
58517;DHT22;44308;50.810;0.284;2023-03-23T05:34:55;10.40;99.90
58517;DHT22;44308;50.810;0.284;2023-03-23T05:37:22;10.40;99.90
58517;DHT22;44308;50.810;0.284;2023-03-23T05:39:48;10.40;99.90
58517;DHT22;44308;50.810;0.284;2023-03-23T05:42:14;10.40;99.90
58517;DHT22;44308;50.810;0.284;2023-03-23T05:44:39;10.40;99.90
58517;DHT22;44308;50.810;0.284;2023-03-23T05:47:06;10.40;99.90
58517;DHT22;44308;50.810;0.284;2023-03-23T05:49:32;10.40;99.90
58517;DHT22;44308;50.810;0.284;2023-03-23T05:51:58;10.40;99.90
58517;DHT22;44308;50.810;0.284;2023-03-23T05:54:24;10.40;99.90
58517;DHT22;44308;50.810;0.284;2023-03-23T05:56:51;10.40;99.90
58517;DHT22;44308;50.810;0.284;2023-03-23T05:59:16;10.40;99.90
58517;DHT22;44308;50.810;0.284;2023-03-23T06:01:42;10.30;99.90
58517;DHT22;44308;50.810;0.284;2023-03-23T06:04:08;10.40;99.90
58517;DHT22;44308;50.810;0.284;2023-03-23T06:06:54;10.50;99.90
58517;DHT22;44308;50.810;0.284;2023-03-23T06:09:21;10.50;99.90
58517;DHT22;44308;50.810;0.284;2023-03-23T06:11:49;10.50;99.90
58517;DHT22;44308;50.810;0.284;2023-03-23T06:14:14;10.60;99.90
58517;DHT22;44308;50.810;0.284;2023-03-23T06:16:42;10.60;99.90
58517;DHT22;44308;50.810;0.284;2023-03-23T06:19:07;10.50;99.90
58517;DHT22;44308;50.810;0.284;2023-03-23T06:21:33;10.70;99.90
58517;DHT22;44308;50.810;0.284;2023-03-23T06:23:59;10.70;99.90
58517;DHT22;44308;50.810;0.284;2023-03-23T06:26:35;10.70;99.90
58517;DHT22;44308;50.810;0.284;2023-03-23T06:29:02;10.70;99.90
58517;DHT22;44308;50.810;0.284;2023-03-23T06:31:28;10.70;99.90
58517;DHT22;44308;50.810;0.284;2023-03-23T06:33:53;10.70;99.90
58517;DHT22;44308;50.810;0.284;2023-03-23T06:36:19;10.90;99.90
58517;DHT22;44308;50.810;0.284;2023-03-23T06:38:45;10.80;99.90
58517;DHT22;44308;50.810;0.284;2023-03-23T06:41:11;10.90;99.90
58517;DHT22;44308;50.810;0.284;2023-03-23T06:43:37;10.90;99.90
58517;DHT22;44308;50.810;0.284;2023-03-23T06:46:05;11.00;99.90
58517;DHT22;44308;50.810;0.284;2023-03-23T06:48:31;10.90;99.90
58517;DHT22;44308;50.810;0.284;2023-03-23T06:50:57;11.00;99.90
58517;DHT22;44308;50.810;0.284;2023-03-23T06:53:23;11.00;99.90
58517;DHT22;44308;50.810;0.284;2023-03-23T06:55:50;11.10;99.90
58517;DHT22;44308;50.810;0.284;2023-03-23T06:58:15;11.20;99.90
58517;DHT22;44308;50.810;0.284;2023-03-23T07:00:41;11.40;99.90
58517;DHT22;44308;50.810;0.284;2023-03-23T07:03:07;11.70;99.90
58517;DHT22;44308;50.810;0.284;2023-03-23T07:05:34;11.70;99.90
58517;DHT22;44308;50.810;0.284;2023-03-23T07:08:02;11.60;99.90
58517;DHT22;44308;50.810;0.284;2023-03-23T07:10:28;11.80;99.90
58517;DHT22;44308;50.810;0.284;2023-03-23T07:12:54;11.80;99.90
58517;DHT22;44308;50.810;0.284;2023-03-23T07:15:19;12.20;99.90
58517;DHT22;44308;50.810;0.284;2023-03-23T07:17:47;12.30;99.90
58517;DHT22;44308;50.810;0.284;2023-03-23T07:20:13;12.30;99.90
58517;DHT22;44308;50.810;0.284;2023-03-23T07:22:39;12.10;99.90
58517;DHT22;44308;50.810;0.284;2023-03-23T07:25:06;11.90;99.90
58517;DHT22;44308;50.810;0.284;2023-03-23T07:27:32;11.90;99.90
58517;DHT22;44308;50.810;0.284;2023-03-23T07:29:57;11.90;99.90
58517;DHT22;44308;50.810;0.284;2023-03-23T07:32:23;11.80;99.90
58517;DHT22;44308;50.810;0.284;2023-03-23T07:34:49;11.90;99.90
58517;DHT22;44308;50.810;0.284;2023-03-23T07:37:16;12.00;99.90
58517;DHT22;44308;50.810;0.284;2023-03-23T07:39:42;11.90;99.90
58517;DHT22;44308;50.810;0.284;2023-03-23T07:42:08;11.70;99.90
58517;DHT22;44308;50.810;0.284;2023-03-23T07:44:34;11.70;99.90
58517;DHT22;44308;50.810;0.284;2023-03-23T07:47:00;11.70;99.90
58517;DHT22;44308;50.810;0.284;2023-03-23T07:49:26;11.60;99.90
58517;DHT22;44308;50.810;0.284;2023-03-23T07:51:52;11.70;99.90
58517;DHT22;44308;50.810;0.284;2023-03-23T07:54:18;11.70;99.90
58517;DHT22;44308;50.810;0.284;2023-03-23T07:56:44;11.80;99.90
58517;DHT22;44308;50.810;0.284;2023-03-23T07:59:11;11.80;99.90
58517;DHT22;44308;50.810;0.284;2023-03-23T08:01:38;11.90;99.90
58517;DHT22;44308;50.810;0.284;2023-03-23T08:04:04;11.90;99.90
58517;DHT22;44308;50.810;0.284;2023-03-23T08:06:34;12.10;99.90
58517;DHT22;44308;50.810;0.284;2023-03-23T08:09:00;12.10;99.90
58517;DHT22;44308;50.810;0.284;2023-03-23T08:11:38;12.00;99.90
58517;DHT22;44308;50.810;0.284;2023-03-23T08:14:04;12.10;99.90
58517;DHT22;44308;50.810;0.284;2023-03-23T08:16:32;12.20;99.90
58517;DHT22;44308;50.810;0.284;2023-03-23T08:18:58;12.20;99.90
58517;DHT22;44308;50.810;0.284;2023-03-23T08:21:23;12.30;99.90
58517;DHT22;44308;50.810;0.284;2023-03-23T08:23:49;12.80;99.90
58517;DHT22;44308;50.810;0.284;2023-03-23T08:26:16;13.20;99.90
58517;DHT22;44308;50.810;0.284;2023-03-23T08:28:42;13.10;99.90
58517;DHT22;44308;50.810;0.284;2023-03-23T08:31:14;12.90;99.90
58517;DHT22;44308;50.810;0.284;2023-03-23T08:33:40;12.80;99.90
58517;DHT22;44308;50.810;0.284;2023-03-23T08:36:07;12.60;99.90
58517;DHT22;44308;50.810;0.284;2023-03-23T08:38:34;12.80;99.90
58517;DHT22;44308;50.810;0.284;2023-03-23T08:41:01;13.10;99.90
58517;DHT22;44308;50.810;0.284;2023-03-23T08:43:29;13.50;99.90
58517;DHT22;44308;50.810;0.284;2023-03-23T08:45:55;13.50;99.90
58517;DHT22;44308;50.810;0.284;2023-03-23T08:48:22;13.70;99.90
58517;DHT22;44308;50.810;0.284;2023-03-23T08:50:49;13.60;99.90
58517;DHT22;44308;50.810;0.284;2023-03-23T08:53:15;13.70;99.90
58517;DHT22;44308;50.810;0.284;2023-03-23T08:55:41;13.60;99.90
58517;DHT22;44308;50.810;0.284;2023-03-23T08:58:09;13.80;99.90
58517;DHT22;44308;50.810;0.284;2023-03-23T09:00:35;13.90;99.90
58517;DHT22;44308;50.810;0.284;2023-03-23T09:03:00;13.90;99.90
58517;DHT22;44308;50.810;0.284;2023-03-23T09:05:28;13.90;99.90
58517;DHT22;44308;50.810;0.284;2023-03-23T09:07:56;14.20;99.90
58517;DHT22;44308;50.810;0.284;2023-03-23T09:10:26;14.60;99.90
58517;DHT22;44308;50.810;0.284;2023-03-23T09:12:52;14.70;99.90
58517;DHT22;44308;50.810;0.284;2023-03-23T09:15:19;14.90;99.90
58517;DHT22;44308;50.810;0.284;2023-03-23T09:17:48;14.90;99.90
58517;DHT22;44308;50.810;0.284;2023-03-23T09:20:20;15.10;99.90
58517;DHT22;44308;50.810;0.284;2023-03-23T09:22:49;15.20;99.90
58517;DHT22;44308;50.810;0.284;2023-03-23T09:25:17;15.10;99.90
58517;DHT22;44308;50.810;0.284;2023-03-23T09:27:57;15.00;99.90
58517;DHT22;44308;50.810;0.284;2023-03-23T09:30:30;15.00;99.90
58517;DHT22;44308;50.810;0.284;2023-03-23T09:32:56;15.20;99.90
58517;DHT22;44308;50.810;0.284;2023-03-23T09:35:23;15.10;99.90
58517;DHT22;44308;50.810;0.284;2023-03-23T09:37:51;15.70;99.90
58517;DHT22;44308;50.810;0.284;2023-03-23T09:40:25;15.90;99.90
58517;DHT22;44308;50.810;0.284;2023-03-23T09:45:51;15.60;99.90
58517;DHT22;44308;50.810;0.284;2023-03-23T09:50:46;15.90;99.90
58517;DHT22;44308;50.810;0.284;2023-03-23T09:53:28;15.90;99.90
58517;DHT22;44308;50.810;0.284;2023-03-23T09:56:01;16.20;99.90
58517;DHT22;44308;50.810;0.284;2023-03-23T09:58:34;16.10;99.90
58517;DHT22;44308;50.810;0.284;2023-03-23T10:01:06;15.90;99.90
58517;DHT22;44308;50.810;0.284;2023-03-23T10:03:42;15.90;99.90
58517;DHT22;44308;50.810;0.284;2023-03-23T10:06:11;16.00;99.90
58517;DHT22;44308;50.810;0.284;2023-03-23T10:08:41;15.90;99.90
58517;DHT22;44308;50.810;0.284;2023-03-23T10:14:11;16.20;99.90
58517;DHT22;44308;50.810;0.284;2023-03-23T10:16:43;16.10;99.90
58517;DHT22;44308;50.810;0.284;2023-03-23T10:19:31;15.70;99.90
58517;DHT22;44308;50.810;0.284;2023-03-23T10:22:05;15.90;99.90
58517;DHT22;44308;50.810;0.284;2023-03-23T10:24:39;15.50;99.90
58517;DHT22;44308;50.810;0.284;2023-03-23T10:29:55;15.90;99.90
58517;DHT22;44308;50.810;0.284;2023-03-23T10:32:48;15.60;99.90
58517;DHT22;44308;50.810;0.284;2023-03-23T10:35:20;15.70;99.90
58517;DHT22;44308;50.810;0.284;2023-03-23T10:37:55;16.00;99.90
58517;DHT22;44308;50.810;0.284;2023-03-23T10:40:27;16.00;99.90
58517;DHT22;44308;50.810;0.284;2023-03-23T10:42:54;16.00;99.90
58517;DHT22;44308;50.810;0.284;2023-03-23T10:45:26;16.00;99.90
58517;DHT22;44308;50.810;0.284;2023-03-23T10:48:10;16.00;99.90
58517;DHT22;44308;50.810;0.284;2023-03-23T10:50:37;15.70;99.90
58517;DHT22;44308;50.810;0.284;2023-03-23T10:53:13;15.90;99.90
58517;DHT22;44308;50.810;0.284;2023-03-23T10:55:42;15.60;99.90
58517;DHT22;44308;50.810;0.284;2023-03-23T10:58:11;15.90;99.90
58517;DHT22;44308;50.810;0.284;2023-03-23T11:00:43;16.10;99.90
58517;DHT22;44308;50.810;0.284;2023-03-23T11:05:58;16.20;99.90
58517;DHT22;44308;50.810;0.284;2023-03-23T11:08:27;16.60;99.90
58517;DHT22;44308;50.810;0.284;2023-03-23T11:10:57;16.60;99.90
58517;DHT22;44308;50.810;0.284;2023-03-23T11:13:31;16.10;99.90
58517;DHT22;44308;50.810;0.284;2023-03-23T11:15:57;16.10;99.90
58517;DHT22;44308;50.810;0.284;2023-03-23T11:20:57;16.20;99.90
58517;DHT22;44308;50.810;0.284;2023-03-23T11:23:51;16.20;99.90
58517;DHT22;44308;50.810;0.284;2023-03-23T11:26:24;16.00;99.90
58517;DHT22;44308;50.810;0.284;2023-03-23T11:31:30;16.00;99.90
58517;DHT22;44308;50.810;0.284;2023-03-23T11:34:03;15.60;99.90
58517;DHT22;44308;50.810;0.284;2023-03-23T11:36:34;15.60;99.90
58517;DHT22;44308;50.810;0.284;2023-03-23T11:39:00;15.70;99.90
58517;DHT22;44308;50.810;0.284;2023-03-23T11:41:38;15.70;99.90
58517;DHT22;44308;50.810;0.284;2023-03-23T11:44:09;15.90;99.90
58517;DHT22;44308;50.810;0.284;2023-03-23T11:49:21;15.40;99.90
58517;DHT22;44308;50.810;0.284;2023-03-23T11:51:54;15.40;99.90
58517;DHT22;44308;50.810;0.284;2023-03-23T11:54:34;15.50;99.90
58517;DHT22;44308;50.810;0.284;2023-03-23T11:57:14;15.90;99.90
58517;DHT22;44308;50.810;0.284;2023-03-23T11:59:41;15.90;99.90
58517;DHT22;44308;50.810;0.284;2023-03-23T12:10:51;15.80;99.90
58517;DHT22;44308;50.810;0.284;2023-03-23T12:18:55;16.10;99.90
58517;DHT22;44308;50.810;0.284;2023-03-23T12:26:53;16.50;99.90
58517;DHT22;44308;50.810;0.284;2023-03-23T12:32:23;16.10;99.90
58517;DHT22;44308;50.810;0.284;2023-03-23T12:35:12;15.90;99.90
58517;DHT22;44308;50.810;0.284;2023-03-23T12:38:00;15.30;99.90
58517;DHT22;44308;50.810;0.284;2023-03-23T12:48:40;14.00;99.90
58517;DHT22;44308;50.810;0.284;2023-03-23T12:51:24;13.50;99.90
58517;DHT22;44308;50.810;0.284;2023-03-23T12:56:56;13.10;99.90
58517;DHT22;44308;50.810;0.284;2023-03-23T13:02:21;12.70;99.90
58517;DHT22;44308;50.810;0.284;2023-03-23T13:05:25;12.70;99.90
58517;DHT22;44308;50.810;0.284;2023-03-23T13:10:39;13.10;99.90
58517;DHT22;44308;50.810;0.284;2023-03-23T13:13:13;13.30;99.90
58517;DHT22;44308;50.810;0.284;2023-03-23T13:16:03;13.60;99.90
58517;DHT22;44308;50.810;0.284;2023-03-23T13:18:34;14.20;99.90
58517;DHT22;44308;50.810;0.284;2023-03-23T13:21:28;14.20;99.90
58517;DHT22;44308;50.810;0.284;2023-03-23T13:24:05;14.00;99.90
58517;DHT22;44308;50.810;0.284;2023-03-23T13:26:38;14.50;99.90
58517;DHT22;44308;50.810;0.284;2023-03-23T13:29:17;14.70;99.90
58517;DHT22;44308;50.810;0.284;2023-03-23T13:31:44;14.70;99.90
58517;DHT22;44308;50.810;0.284;2023-03-23T13:34:30;15.10;99.90
58517;DHT22;44308;50.810;0.284;2023-03-23T13:36:57;15.30;99.90
58517;DHT22;44308;50.810;0.284;2023-03-23T13:39:47;15.40;99.90
58517;DHT22;44308;50.810;0.284;2023-03-23T13:50:00;15.20;99.90
58517;DHT22;44308;50.810;0.284;2023-03-23T13:53:00;15.20;99.90
58517;DHT22;44308;50.810;0.284;2023-03-23T13:55:47;15.30;99.90
58517;DHT22;44308;50.810;0.284;2023-03-23T13:58:23;15.20;99.90
58517;DHT22;44308;50.810;0.284;2023-03-23T14:01:19;15.10;99.90
58517;DHT22;44308;50.810;0.284;2023-03-23T14:03:55;15.00;99.90
58517;DHT22;44308;50.810;0.284;2023-03-23T14:06:22;15.10;99.90
58517;DHT22;44308;50.810;0.284;2023-03-23T14:08:53;15.10;99.90
58517;DHT22;44308;50.810;0.284;2023-03-23T14:11:21;15.10;99.90
58517;DHT22;44308;50.810;0.284;2023-03-23T14:18:59;14.60;99.90
58517;DHT22;44308;50.810;0.284;2023-03-23T14:21:32;14.50;99.90
58517;DHT22;44308;50.810;0.284;2023-03-23T14:27:09;14.30;99.90
58517;DHT22;44308;50.810;0.284;2023-03-23T14:29:35;14.30;99.90
58517;DHT22;44308;50.810;0.284;2023-03-23T14:32:01;14.30;99.90
58517;DHT22;44308;50.810;0.284;2023-03-23T14:34:31;14.40;99.90
58517;DHT22;44308;50.810;0.284;2023-03-23T14:36:58;14.40;99.90
58517;DHT22;44308;50.810;0.284;2023-03-23T14:39:32;14.30;99.90
58517;DHT22;44308;50.810;0.284;2023-03-23T14:42:10;14.20;99.90
58517;DHT22;44308;50.810;0.284;2023-03-23T14:44:48;14.10;99.90
58517;DHT22;44308;50.810;0.284;2023-03-23T14:49:46;13.60;99.90
58517;DHT22;44308;50.810;0.284;2023-03-23T14:52:17;13.50;99.90
58517;DHT22;44308;50.810;0.284;2023-03-23T14:54:45;13.50;99.90
58517;DHT22;44308;50.810;0.284;2023-03-23T14:59:44;13.30;99.90
58517;DHT22;44308;50.810;0.284;2023-03-23T15:04:50;13.20;99.90
58517;DHT22;44308;50.810;0.284;2023-03-23T15:07:18;13.20;99.90
58517;DHT22;44308;50.810;0.284;2023-03-23T15:09:47;13.10;99.90
58517;DHT22;44308;50.810;0.284;2023-03-23T15:12:24;13.00;99.90
58517;DHT22;44308;50.810;0.284;2023-03-23T15:14:57;12.90;99.90
58517;DHT22;44308;50.810;0.284;2023-03-23T15:17:32;12.70;99.90
58517;DHT22;44308;50.810;0.284;2023-03-23T15:20:08;12.70;99.90
58517;DHT22;44308;50.810;0.284;2023-03-23T15:22:34;12.60;99.90
58517;DHT22;44308;50.810;0.284;2023-03-23T15:25:10;12.60;99.90
58517;DHT22;44308;50.810;0.284;2023-03-23T15:27:42;12.40;99.90
58517;DHT22;44308;50.810;0.284;2023-03-23T15:32:41;12.30;99.90
58517;DHT22;44308;50.810;0.284;2023-03-23T15:35:19;12.30;99.90
58517;DHT22;44308;50.810;0.284;2023-03-23T15:37:48;12.30;99.90
58517;DHT22;44308;50.810;0.284;2023-03-23T15:40:25;12.20;99.90
58517;DHT22;44308;50.810;0.284;2023-03-23T15:43:15;12.10;99.90
58517;DHT22;44308;50.810;0.284;2023-03-23T15:48:50;12.10;99.90
58517;DHT22;44308;50.810;0.284;2023-03-23T15:51:20;12.00;99.90
58517;DHT22;44308;50.810;0.284;2023-03-23T15:53:47;12.00;99.90
58517;DHT22;44308;50.810;0.284;2023-03-23T15:56:13;12.10;99.90
58517;DHT22;44308;50.810;0.284;2023-03-23T15:58:40;12.00;99.90
58517;DHT22;44308;50.810;0.284;2023-03-23T16:01:11;12.10;99.90
58517;DHT22;44308;50.810;0.284;2023-03-23T16:03:42;12.00;99.90
58517;DHT22;44308;50.810;0.284;2023-03-23T16:06:13;12.00;99.90
58517;DHT22;44308;50.810;0.284;2023-03-23T16:08:39;11.90;99.90
58517;DHT22;44308;50.810;0.284;2023-03-23T16:11:15;11.90;99.90
58517;DHT22;44308;50.810;0.284;2023-03-23T16:13:41;11.90;99.90
58517;DHT22;44308;50.810;0.284;2023-03-23T16:16:17;11.90;99.90
58517;DHT22;44308;50.810;0.284;2023-03-23T16:18:43;12.00;99.90
58517;DHT22;44308;50.810;0.284;2023-03-23T16:21:09;11.90;99.90
58517;DHT22;44308;50.810;0.284;2023-03-23T16:23:35;11.90;99.90
58517;DHT22;44308;50.810;0.284;2023-03-23T16:26:04;11.90;99.90
58517;DHT22;44308;50.810;0.284;2023-03-23T16:28:29;11.90;99.90
58517;DHT22;44308;50.810;0.284;2023-03-23T16:30:55;11.90;99.90
58517;DHT22;44308;50.810;0.284;2023-03-23T16:33:21;12.00;99.90
58517;DHT22;44308;50.810;0.284;2023-03-23T16:35:47;12.00;99.90
58517;DHT22;44308;50.810;0.284;2023-03-23T16:38:14;12.10;99.90
58517;DHT22;44308;50.810;0.284;2023-03-23T16:40:41;12.20;99.90
58517;DHT22;44308;50.810;0.284;2023-03-23T16:43:08;12.10;99.90
58517;DHT22;44308;50.810;0.284;2023-03-23T16:45:34;12.10;99.90
58517;DHT22;44308;50.810;0.284;2023-03-23T16:48:00;12.10;99.90
58517;DHT22;44308;50.810;0.284;2023-03-23T16:50:27;12.00;99.90
58517;DHT22;44308;50.810;0.284;2023-03-23T16:52:54;12.10;99.90
58517;DHT22;44308;50.810;0.284;2023-03-23T16:55:20;12.00;99.90
58517;DHT22;44308;50.810;0.284;2023-03-23T16:57:46;11.90;99.90
58517;DHT22;44308;50.810;0.284;2023-03-23T17:00:14;11.90;99.90
58517;DHT22;44308;50.810;0.284;2023-03-23T17:02:42;11.90;99.90
58517;DHT22;44308;50.810;0.284;2023-03-23T17:05:09;11.90;99.90
58517;DHT22;44308;50.810;0.284;2023-03-23T17:07:37;12.00;99.90
58517;DHT22;44308;50.810;0.284;2023-03-23T17:10:03;11.90;99.90
58517;DHT22;44308;50.810;0.284;2023-03-23T17:12:30;11.90;99.90
58517;DHT22;44308;50.810;0.284;2023-03-23T17:14:56;12.00;99.90
58517;DHT22;44308;50.810;0.284;2023-03-23T17:17:22;12.00;99.90
58517;DHT22;44308;50.810;0.284;2023-03-23T17:19:49;12.00;99.90
58517;DHT22;44308;50.810;0.284;2023-03-23T17:22:15;12.00;99.90
58517;DHT22;44308;50.810;0.284;2023-03-23T17:24:41;12.00;99.90
58517;DHT22;44308;50.810;0.284;2023-03-23T17:27:07;12.00;99.90
58517;DHT22;44308;50.810;0.284;2023-03-23T17:29:32;12.10;99.90
58517;DHT22;44308;50.810;0.284;2023-03-23T17:32:05;12.10;99.90
58517;DHT22;44308;50.810;0.284;2023-03-23T17:34:31;12.00;99.90
58517;DHT22;44308;50.810;0.284;2023-03-23T17:37:15;12.00;99.90
58517;DHT22;44308;50.810;0.284;2023-03-23T17:39:41;12.00;99.90
58517;DHT22;44308;50.810;0.284;2023-03-23T17:42:07;12.00;99.90